CYND

Ottawa / Gatineau Airport

Ottawa, , Canada
METAR CYND 152200Z 34009KT 15SM FEW035 SCT140 24/16 A2988 RMK SC2AC2 SLP121 DENSITY ALT 1400FT
Observed Flight Rules
Aug-15 @ 22:00 UTC (28 minutes ago) Visual Flight Rules
Wind Visibility Clouds
340° at 9 knots 15 miles
  • Few at 3,500' AGL
  • Scattered at 14,000' AGL
Temperatures Readings
Current 24°C / 75°F
Dewpoint 16°C / 61°F
Humidity 61%
Altimeter 29.88" Hg
Pressure 1012.1 hPa
Elevation 64
METAR CYND 152200Z 34009KT 15SM FEW035 SCT140 24/16 A2988 RMK SC2AC2 SLP121 DENSITY ALT 1400FT
Observed Flight Rules
Aug-15 @ 22:00 UTC
(28 minutes ago)
VFR
Wind Visibility
340° at 9 knots 15 miles
Clouds
  • Few at 3,500' AGL
  • Scattered at 14,000' AGL
Temperature Dewpoint
24°C / 75°F 16°C / 61°F
Humidity Altimeter Pressure
61% 29.88" Hg 1012.1 hPa